Time;durP1;ratioP1;P1;durP2;ratioP2;P2;SDS_P1;SDS_P2;PMS_P1;PMS_P2;Temp;Humidity;BMP_temperature;BMP_pressure;BME280_temperature;BME280_humidity;BME280_pressure;Samples;Min_cycle;Max_cycle;Signal;HPM_P1;HPM_P2
2024/03/05 00:02:33;;;;;;;23.05;13.50;;;;;;;;;;13165556;22;20521;-74
2024/03/05 00:07:37;;;;;;;21.75;12.38;;;;;;;;;;13174975;22;20097;-74
2024/03/05 00:12:40;;;;;;;21.58;12.00;;;;;;;;;;13137080;22;20022;-74
2024/03/05 00:17:44;;;;;;;24.98;11.90;;;;;;;;;;13172791;22;20105;-74
2024/03/05 00:22:50;;;;;;;21.38;12.90;;;;;;;;;;13153170;22;20026;-74
2024/03/05 00:27:53;;;;;;;29.70;16.30;;;;;;;;;;13172296;22;20022;-74
2024/03/05 00:32:59;;;;;;;21.05;12.32;;;;;;;;;;13174606;22;20030;-74
2024/03/05 00:38:03;;;;;;;18.70;10.93;;;;;;;;;;13166493;22;20104;-74
2024/03/05 00:43:08;;;;;;;16.48;9.48;;;;;;;;;;13137694;22;20336;-74
2024/03/05 00:48:13;;;;;;;20.80;11.13;;;;;;;;;;13171729;22;20143;-74
2024/03/05 00:53:16;;;;;;;17.50;10.00;;;;;;;;;;13164827;22;20050;-74
2024/03/05 00:58:20;;;;;;;16.38;9.60;;;;;;;;;;13137177;22;20041;-74
2024/03/05 01:03:25;;;;;;;14.95;9.02;;;;;;;;;;13170094;22;20023;-74
2024/03/05 01:08:30;;;;;;;16.95;8.98;;;;;;;;;;13164745;22;20077;-74
2024/03/05 01:13:34;;;;;;;14.52;8.32;;;;;;;;;;13169005;22;20101;-74
2024/03/05 01:18:38;;;;;;;16.48;9.25;;;;;;;;;;13163150;22;20094;-74
2024/03/05 01:23:41;;;;;;;17.35;10.07;;;;;;;;;;13169556;22;20042;-74
2024/03/05 01:28:45;;;;;;;13.98;8.55;;;;;;;;;;13163506;22;20390;-74
2024/03/05 01:33:50;;;;;;;13.35;7.78;;;;;;;;;;13171215;22;20548;-74
2024/03/05 01:38:53;;;;;;;14.70;8.18;;;;;;;;;;13140047;22;20456;-74
2024/03/05 01:43:56;;;;;;;14.77;8.35;;;;;;;;;;13140985;22;20544;-74
2024/03/05 01:49:02;;;;;;;14.95;9.20;;;;;;;;;;13166363;22;20018;-74
2024/03/05 01:54:06;;;;;;;14.90;9.27;;;;;;;;;;13168463;22;20093;-74
2024/03/05 01:59:10;;;;;;;16.88;8.90;;;;;;;;;;13170376;22;20135;-74
2024/03/05 02:04:15;;;;;;;14.98;9.10;;;;;;;;;;13167529;22;20030;-74
2024/03/05 02:09:21;;;;;;;14.97;9.13;;;;;;;;;;13169405;22;20018;-74
2024/03/05 02:14:26;;;;;;;16.35;10.00;;;;;;;;;;13168964;22;20042;-74
2024/03/05 02:19:31;;;;;;;19.05;11.50;;;;;;;;;;13161311;22;20525;-74
2024/03/05 02:24:35;;;;;;;16.60;9.82;;;;;;;;;;13140209;22;20025;-74
2024/03/05 02:29:39;;;;;;;15.13;9.43;;;;;;;;;;13166913;22;20399;-74
2024/03/05 02:34:42;;;;;;;16.10;9.15;;;;;;;;;;13166495;22;20029;-74
2024/03/05 02:39:47;;;;;;;16.20;9.05;;;;;;;;;;13167006;22;20478;-78
2024/03/05 02:44:50;;;;;;;21.00;10.23;;;;;;;;;;13188724;22;20018;-75
2024/03/05 02:49:53;;;;;;;15.93;9.57;;;;;;;;;;13139184;22;20101;-74
2024/03/05 02:54:58;;;;;;;13.75;7.82;;;;;;;;;;13188568;22;20049;-74
2024/03/05 03:00:08;;;;;;;15.45;8.55;;;;;;;;;;13139569;22;20017;-74
2024/03/05 03:05:12;;;;;;;17.63;9.65;;;;;;;;;;13186349;22;20445;-74
2024/03/05 03:10:17;;;;;;;16.42;9.38;;;;;;;;;;13186210;22;20038;-74
2024/03/05 03:15:21;;;;;;;14.05;8.75;;;;;;;;;;13186163;22;20122;-74
2024/03/05 03:20:24;;;;;;;12.55;7.53;;;;;;;;;;13137747;22;20556;-74
2024/03/05 03:25:30;;;;;;;14.98;7.22;;;;;;;;;;13185230;22;20046;-74
2024/03/05 03:30:34;;;;;;;;;;;;;;;;;;13185835;22;20501;-74
2024/03/05 03:35:39;;;;;;;10.02;6.10;;;;;;;;;;13138559;22;19918;-74
2024/03/05 03:40:44;;;;;;;11.85;7.03;;;;;;;;;;13184557;22;20106;-74
2024/03/05 03:45:47;;;;;;;10.98;6.90;;;;;;;;;;13138229;22;20074;-74
2024/03/05 03:50:51;;;;;;;11.35;6.65;;;;;;;;;;13182262;22;20469;-74
2024/03/05 03:55:55;;;;;;;10.48;6.63;;;;;;;;;;13166128;22;20097;-74
2024/03/05 04:00:59;;;;;;;11.90;6.68;;;;;;;;;;13190421;22;20061;-74
2024/03/05 04:06:02;;;;;;;13.75;6.57;;;;;;;;;;13191898;22;20509;-74
2024/03/05 04:11:07;;;;;;;11.65;6.80;;;;;;;;;;13144510;22;20038;-74
2024/03/05 04:16:10;;;;;;;11.20;7.22;;;;;;;;;;13169189;22;20506;-74
2024/03/05 04:21:14;;;;;;;13.40;7.13;;;;;;;;;;13162510;22;20027;-74
2024/03/05 04:26:23;;;;;;;12.40;6.93;;;;;;;;;;13176896;22;20041;-74
2024/03/05 04:31:30;;;;;;;14.13;7.88;;;;;;;;;;13135566;22;20054;-74
2024/03/05 04:36:37;;;;;;;12.93;7.43;;;;;;;;;;13178484;22;20449;-74
2024/03/05 04:41:45;;;;;;;13.05;6.85;;;;;;;;;;13137270;22;20080;-74
2024/03/05 04:46:49;;;;;;;12.45;7.65;;;;;;;;;;13175940;22;20018;-74
2024/03/05 04:51:52;;;;;;;12.68;7.07;;;;;;;;;;13176708;22;20033;-74
2024/03/05 04:56:57;;;;;;;12.77;7.60;;;;;;;;;;13135684;22;20345;-74
2024/03/05 05:02:01;;;;;;;15.60;8.43;;;;;;;;;;13162348;22;20076;-74
2024/03/05 05:07:07;;;;;;;15.80;8.32;;;;;;;;;;13175489;22;20027;-74
2024/03/05 05:12:12;;;;;;;14.10;8.05;;;;;;;;;;13174111;22;20086;-74
2024/03/05 05:17:15;;;;;;;14.13;7.45;;;;;;;;;;13174502;22;20488;-74
2024/03/05 05:22:18;;;;;;;14.15;7.80;;;;;;;;;;13174404;22;20671;-74
2024/03/05 05:27:23;;;;;;;15.18;9.10;;;;;;;;;;13163553;22;20052;-74
2024/03/05 05:32:27;;;;;;;12.10;7.00;;;;;;;;;;13171961;22;20465;-74
2024/03/05 05:37:30;;;;;;;15.60;8.13;;;;;;;;;;13161688;22;20049;-74
2024/03/05 05:42:35;;;;;;;13.10;7.78;;;;;;;;;;13162353;22;20060;-74
2024/03/05 05:47:42;;;;;;;12.10;7.13;;;;;;;;;;13132753;22;20024;-74
2024/03/05 05:52:46;;;;;;;11.68;6.75;;;;;;;;;;13162654;22;20401;-74
2024/03/05 05:57:51;;;;;;;11.27;6.63;;;;;;;;;;13161951;22;20011;-74
2024/03/05 06:02:56;;;;;;;9.47;6.27;;;;;;;;;;13161797;22;20026;-74
2024/03/05 06:08:00;;;;;;;12.05;6.95;;;;;;;;;;13169360;22;20422;-74
2024/03/05 06:13:07;;;;;;;12.77;7.40;;;;;;;;;;13161785;22;20027;-74
2024/03/05 06:18:10;;;;;;;11.50;7.05;;;;;;;;;;13168178;22;20326;-74
2024/03/05 06:23:14;;;;;;;11.18;6.70;;;;;;;;;;13173035;22;20026;-74
2024/03/05 06:28:19;;;;;;;12.48;7.10;;;;;;;;;;13171901;22;20052;-75
2024/03/05 06:33:22;;;;;;;12.00;7.10;;;;;;;;;;13165759;22;20397;-74
2024/03/05 06:38:26;;;;;;;12.98;7.03;;;;;;;;;;13138152;22;20022;-74
2024/03/05 06:43:36;;;;;;;15.52;8.07;;;;;;;;;;13170712;22;20410;-74
2024/03/05 06:48:47;;;;;;;14.70;8.10;;;;;;;;;;13169702;22;20026;-74
2024/03/05 06:59:13;;;;;;;13.25;7.30;;;;;;;;;;13166843;22;20042;-74
2024/03/05 07:04:17;;;;;;;10.37;6.50;;;;;;;;;;13164237;22;20097;-74
2024/03/05 07:09:27;;;;;;;12.43;7.63;;;;;;;;;;13165638;22;20265;-75
2024/03/05 07:14:32;;;;;;;13.70;7.18;;;;;;;;;;13135578;22;20113;-74
2024/03/05 07:19:35;;;;;;;11.82;7.13;;;;;;;;;;13163078;22;20046;-74
2024/03/05 07:24:39;;;;;;;13.48;7.28;;;;;;;;;;13163117;22;20621;-74
2024/03/05 07:29:43;;;;;;;10.90;6.78;;;;;;;;;;13164036;22;20109;-75
2024/03/05 07:34:46;;;;;;;12.50;7.35;;;;;;;;;;13168772;22;20141;-75
2024/03/05 07:39:50;;;;;;;13.68;7.47;;;;;;;;;;13195441;22;20018;-75
2024/03/05 07:44:54;;;;;;;13.52;8.05;;;;;;;;;;13191000;22;20665;-75
2024/03/05 07:49:58;;;;;;;15.98;8.48;;;;;;;;;;13164844;22;20237;-75
2024/03/05 07:55:01;;;;;;;12.25;7.45;;;;;;;;;;13186413;22;20018;-75
2024/03/05 08:00:08;;;;;;;10.65;6.40;;;;;;;;;;13183966;22;20068;-75
2024/03/05 08:05:17;;;;;;;11.00;7.15;;;;;;;;;;13183297;22;20504;-74
2024/03/05 08:10:22;;;;;;;14.23;7.80;;;;;;;;;;13134794;22;20038;-75
2024/03/05 08:15:27;;;;;;;11.75;7.47;;;;;;;;;;13182229;22;20029;-75
2024/03/05 08:20:30;;;;;;;12.25;7.18;;;;;;;;;;13181372;22;20030;-75
2024/03/05 08:25:33;;;;;;;11.25;6.90;;;;;;;;;;13182085;22;20101;-75
2024/03/05 08:30:40;;;;;;;9.88;6.38;;;;;;;;;;13181075;22;20022;-75
2024/03/05 08:35:43;;;;;;;8.80;5.38;;;;;;;;;;13180323;22;20409;-74
2024/03/05 08:40:48;;;;;;;9.05;5.28;;;;;;;;;;13180618;22;20034;-75
2024/03/05 08:45:53;;;;;;;11.93;7.22;;;;;;;;;;13164316;22;20022;-75
2024/03/05 08:50:58;;;;;;;11.65;7.00;;;;;;;;;;13179274;22;20117;-75
2024/03/05 08:56:01;;;;;;;11.30;6.60;;;;;;;;;;13135137;22;20026;-75
2024/03/05 09:01:10;;;;;;;10.52;6.47;;;;;;;;;;13178896;22;20026;-74
2024/03/05 09:06:13;;;;;;;9.80;6.43;;;;;;;;;;13135112;22;20049;-75
2024/03/05 09:11:17;;;;;;;11.27;6.50;;;;;;;;;;13177213;22;20030;-75
2024/03/05 09:16:22;;;;;;;10.25;6.65;;;;;;;;;;13133145;22;20056;-75
2024/03/05 09:21:25;;;;;;;9.48;6.28;;;;;;;;;;13162635;22;20023;-75
2024/03/05 09:26:29;;;;;;;11.02;6.30;;;;;;;;;;13176832;22;20056;-75
2024/03/05 09:31:35;;;;;;;10.73;6.10;;;;;;;;;;13129495;22;20420;-74
2024/03/05 09:36:39;;;;;;;7.87;5.03;;;;;;;;;;13161783;22;20107;-75
2024/03/05 09:41:43;;;;;;;10.38;6.45;;;;;;;;;;13174407;22;20041;-74
2024/03/05 09:46:49;;;;;;;10.70;6.55;;;;;;;;;;13174318;22;20050;-74
2024/03/05 09:51:53;;;;;;;10.48;6.20;;;;;;;;;;13162224;22;20042;-75
2024/03/05 09:56:56;;;;;;;9.80;6.22;;;;;;;;;;13177457;22;20023;-74
2024/03/05 10:02:00;;;;;;;10.48;6.30;;;;;;;;;;13176651;22;20111;-74
2024/03/05 10:07:07;;;;;;;11.63;6.97;;;;;;;;;;13177180;22;20022;-75
2024/03/05 10:12:13;;;;;;;12.23;7.05;;;;;;;;;;13164579;22;20054;-74
2024/03/05 10:17:17;;;;;;;9.93;6.47;;;;;;;;;;13138034;22;20038;-74
2024/03/05 10:22:21;;;;;;;10.55;6.78;;;;;;;;;;13175408;22;20098;-74
2024/03/05 10:27:28;;;;;;;10.52;6.75;;;;;;;;;;13136860;22;20118;-75
2024/03/05 10:32:33;;;;;;;11.52;7.15;;;;;;;;;;13173058;22;20030;-74
2024/03/05 10:37:36;;;;;;;11.38;6.80;;;;;;;;;;13174454;22;20097;-74
2024/03/05 10:42:42;;;;;;;12.32;6.95;;;;;;;;;;13136183;22;20173;-74
2024/03/05 10:47:48;;;;;;;10.63;6.43;;;;;;;;;;13172141;22;20049;-75
2024/03/05 10:52:52;;;;;;;11.23;6.90;;;;;;;;;;13173736;22;20061;-74
2024/03/05 11:03:27;;;;;;;;;;;;;;;;;;13155561;22;20660;-74
2024/03/05 11:08:30;;;;;;;10.98;6.78;;;;;;;;;;13176211;22;20524;-74
2024/03/05 11:13:35;;;;;;;15.75;9.75;;;;;;;;;;13139057;22;20018;-74
2024/03/05 11:18:41;;;;;;;20.08;12.90;;;;;;;;;;13169436;22;20030;-74
2024/03/05 11:23:57;;;;;;;14.30;9.40;;;;;;;;;;13168807;22;20026;-74
2024/03/05 11:29:30;;;;;;;15.00;9.55;;;;;;;;;;13165913;22;20382;-74
2024/03/05 11:34:36;;;;;;;9.98;7.15;;;;;;;;;;13163819;22;20147;-74
2024/03/05 11:39:42;;;;;;;20.60;12.93;;;;;;;;;;13163461;22;20022;-74
2024/03/05 11:44:53;;;;;;;19.15;13.00;;;;;;;;;;13162753;22;20034;-78
2024/03/05 11:50:04;;;;;;;14.15;9.60;;;;;;;;;;13183442;22;20067;-75
2024/03/05 11:55:09;;;;;;;16.13;10.23;;;;;;;;;;13185710;22;20026;-74
2024/03/05 12:00:17;;;;;;;16.33;10.43;;;;;;;;;;13183428;22;20227;-74
2024/03/05 12:05:22;;;;;;;17.42;11.02;;;;;;;;;;13163746;22;20686;-74
2024/03/05 12:10:30;;;;;;;15.70;10.10;;;;;;;;;;13163014;22;20022;-74
2024/03/05 12:15:35;;;;;;;17.67;11.27;;;;;;;;;;13182133;22;20037;-74
2024/03/05 12:20:41;;;;;;;10.55;7.13;;;;;;;;;;13163748;22;20500;-74
2024/03/05 12:25:46;;;;;;;11.02;6.95;;;;;;;;;;13136042;22;20018;-74
2024/03/05 12:30:51;;;;;;;10.52;7.13;;;;;;;;;;13179651;22;20667;-74
2024/03/05 12:35:58;;;;;;;9.73;6.40;;;;;;;;;;13177842;22;20037;-74
2024/03/05 12:41:01;;;;;;;10.18;6.25;;;;;;;;;;13178663;22;20026;-74
2024/03/05 12:46:06;;;;;;;9.00;6.70;;;;;;;;;;13163083;22;20059;-73
2024/03/05 12:51:12;;;;;;;7.13;5.30;;;;;;;;;;13134734;22;20042;-74
2024/03/05 12:56:16;;;;;;;6.32;4.63;;;;;;;;;;13162481;22;20339;-74
2024/03/05 13:01:19;;;;;;;5.63;3.75;;;;;;;;;;13175668;22;20332;-74
2024/03/05 13:06:24;;;;;;;5.82;4.65;;;;;;;;;;13135465;22;20219;-74
2024/03/05 13:11:27;;;;;;;5.80;3.55;;;;;;;;;;13177877;22;20034;-74
2024/03/05 13:16:31;;;;;;;5.30;3.13;;;;;;;;;;13163298;22;20022;-74
2024/03/05 13:21:35;;;;;;;5.28;3.53;;;;;;;;;;13134280;22;20041;-74
2024/03/05 13:26:43;;;;;;;3.55;2.60;;;;;;;;;;13177489;22;20095;-74
2024/03/05 13:31:46;;;;;;;4.10;2.60;;;;;;;;;;13165401;22;20036;-74
2024/03/05 13:36:51;;;;;;;2.92;1.48;;;;;;;;;;13133854;22;20023;-74
2024/03/05 13:41:54;;;;;;;2.60;1.48;;;;;;;;;;13166306;22;20014;-74
2024/03/05 13:46:58;;;;;;;1.95;1.50;;;;;;;;;;13179518;22;20026;-74
2024/03/05 13:52:02;;;;;;;1.88;1.27;;;;;;;;;;13167914;22;20014;-74
2024/03/05 13:57:07;;;;;;;1.75;1.40;;;;;;;;;;13168229;22;20449;-74
2024/03/05 14:02:10;;;;;;;1.30;1.15;;;;;;;;;;13139174;22;20414;-74
2024/03/05 14:07:15;;;;;;;0.90;0.80;;;;;;;;;;13167528;22;20026;-75
2024/03/05 14:12:19;;;;;;;0.83;0.80;;;;;;;;;;13139562;22;20018;-74
2024/03/05 14:17:24;;;;;;;1.85;1.05;;;;;;;;;;13176896;22;20091;-74
2024/03/05 14:22:29;;;;;;;1.13;1.02;;;;;;;;;;13175409;22;20028;-74
2024/03/05 14:27:32;;;;;;;2.15;1.40;;;;;;;;;;13174671;22;20061;-74
2024/03/05 14:32:35;;;;;;;1.20;0.80;;;;;;;;;;13174794;22;20098;-74
2024/03/05 14:37:40;;;;;;;1.60;0.95;;;;;;;;;;13164760;22;20524;-74
2024/03/05 14:42:44;;;;;;;1.10;0.80;;;;;;;;;;13139721;22;20072;-74
2024/03/05 14:47:48;;;;;;;0.60;0.60;;;;;;;;;;13175513;22;20037;-74
2024/03/05 14:52:53;;;;;;;1.58;0.70;;;;;;;;;;13174675;22;20064;-74
2024/03/05 14:57:56;;;;;;;0.40;0.40;;;;;;;;;;13165818;22;20053;-74
2024/03/05 15:03:00;;;;;;;0.40;0.40;;;;;;;;;;13173284;22;20101;-74
2024/03/05 15:08:07;;;;;;;0.80;0.60;;;;;;;;;;13166384;22;20022;-74
2024/03/05 15:13:10;;;;;;;0.55;0.30;;;;;;;;;;13172797;22;20025;-74
2024/03/05 15:18:14;;;;;;;0.65;0.65;;;;;;;;;;13164265;22;20045;-74
2024/03/05 15:23:19;;;;;;;0.90;0.73;;;;;;;;;;13171985;22;20372;-74
2024/03/05 15:28:23;;;;;;;0.65;0.65;;;;;;;;;;13169649;22;20022;-74
2024/03/05 15:33:26;;;;;;;0.43;0.43;;;;;;;;;;13167192;22;20057;-74
2024/03/05 15:38:31;;;;;;;0.47;0.47;;;;;;;;;;13135995;22;20422;-74
2024/03/05 15:43:34;;;;;;;1.65;0.90;;;;;;;;;;13168906;22;20513;-74
2024/03/05 15:48:38;;;;;;;1.58;1.00;;;;;;;;;;13131714;22;20022;-74
2024/03/05 15:53:43;;;;;;;3.92;1.55;;;;;;;;;;13169588;22;20113;-74
2024/03/05 16:04:09;;;;;;;2.08;1.58;;;;;;;;;;13164016;22;20469;-74
2024/03/05 16:09:19;;;;;;;2.22;1.88;;;;;;;;;;13165130;22;20071;-74
2024/03/05 16:14:22;;;;;;;1.33;1.23;;;;;;;;;;13167389;22;20025;-74
2024/03/05 16:19:26;;;;;;;0.80;0.73;;;;;;;;;;13163135;22;20018;-74
2024/03/05 16:24:30;;;;;;;1.10;1.00;;;;;;;;;;13163722;22;20052;-74
2024/03/05 16:29:34;;;;;;;0.85;0.80;;;;;;;;;;13164115;22;20026;-73
2024/03/05 16:34:38;;;;;;;0.85;0.85;;;;;;;;;;13163551;22;20426;-74
2024/03/05 16:39:44;;;;;;;0.93;0.80;;;;;;;;;;13164682;22;20034;-74
2024/03/05 16:44:47;;;;;;;1.38;1.00;;;;;;;;;;13163685;22;20354;-75
2024/03/05 16:49:51;;;;;;;2.40;1.58;;;;;;;;;;13135235;22;20109;-74
2024/03/05 16:54:59;;;;;;;2.45;1.65;;;;;;;;;;13186013;22;20045;-74
2024/03/05 17:00:04;;;;;;;1.58;1.08;;;;;;;;;;13163199;22;20014;-74
2024/03/05 17:05:07;;;;;;;0.70;0.68;;;;;;;;;;13164308;22;20014;-74
2024/03/05 17:10:13;;;;;;;1.05;0.73;;;;;;;;;;13135586;22;20382;-74
2024/03/05 17:15:19;;;;;;;0.40;0.40;;;;;;;;;;13183420;22;20079;-74
2024/03/05 17:20:23;;;;;;;0.40;0.40;;;;;;;;;;13183024;22;20093;-74
2024/03/05 17:25:31;;;;;;;0.50;0.45;;;;;;;;;;13183823;22;20041;-74
2024/03/05 17:30:37;;;;;;;0.50;0.50;;;;;;;;;;13182056;22;20085;-74
2024/03/05 17:35:41;;;;;;;0.55;0.55;;;;;;;;;;13136043;22;20040;-74
2024/03/05 17:40:45;;;;;;;0.68;0.68;;;;;;;;;;13182141;22;20704;-74
2024/03/05 17:45:48;;;;;;;1.00;0.90;;;;;;;;;;13134660;22;20064;-74
2024/03/05 17:50:52;;;;;;;1.92;1.00;;;;;;;;;;13163732;22;20025;-74
2024/03/05 17:55:56;;;;;;;1.70;1.20;;;;;;;;;;13134409;22;20053;-74
2024/03/05 18:01:00;;;;;;;2.17;1.67;;;;;;;;;;13134452;22;20038;-74
2024/03/05 18:06:04;;;;;;;2.00;1.40;;;;;;;;;;13178950;22;20087;-74
2024/03/05 18:11:11;;;;;;;2.60;1.58;;;;;;;;;;13181663;22;20042;-74
2024/03/05 18:16:14;;;;;;;1.40;1.30;;;;;;;;;;13167918;22;20075;-74
2024/03/05 18:21:18;;;;;;;1.88;1.10;;;;;;;;;;13184111;22;20109;-74
2024/03/05 18:26:23;;;;;;;3.08;1.98;;;;;;;;;;13169427;22;20025;-74
2024/03/05 18:31:30;;;;;;;5.35;3.13;;;;;;;;;;13166120;22;20030;-74
2024/03/05 18:36:34;;;;;;;5.28;3.13;;;;;;;;;;13141607;22;20018;-74
2024/03/05 18:41:39;;;;;;;5.32;2.90;;;;;;;;;;13180895;22;20042;-74
2024/03/05 18:46:43;;;;;;;4.20;2.80;;;;;;;;;;13181076;22;20422;-74
2024/03/05 18:51:46;;;;;;;3.60;2.38;;;;;;;;;;13168218;22;20023;-74
2024/03/05 18:56:51;;;;;;;4.38;2.38;;;;;;;;;;13181926;22;20014;-74
2024/03/05 19:01:55;;;;;;;2.40;1.77;;;;;;;;;;13167699;22;20042;-74
2024/03/05 19:06:58;;;;;;;2.13;1.52;;;;;;;;;;13180626;22;20022;-74
2024/03/05 19:12:03;;;;;;;1.85;1.65;;;;;;;;;;13180028;22;20101;-74
2024/03/05 19:17:07;;;;;;;2.78;2.00;;;;;;;;;;13168200;22;20475;-74
2024/03/05 19:22:10;;;;;;;2.53;2.13;;;;;;;;;;13168397;22;20068;-74
2024/03/05 19:27:17;;;;;;;3.05;1.92;;;;;;;;;;13137834;22;20060;-74
2024/03/05 19:32:20;;;;;;;3.53;2.20;;;;;;;;;;13138279;22;20022;-74
2024/03/05 19:37:24;;;;;;;1.63;1.23;;;;;;;;;;13165407;22;20557;-73
2024/03/05 19:42:28;;;;;;;1.88;1.25;;;;;;;;;;13139050;22;20076;-73
2024/03/05 19:47:32;;;;;;;3.65;2.13;;;;;;;;;;13165625;22;20361;-74
2024/03/05 19:52:36;;;;;;;5.47;2.05;;;;;;;;;;13176167;22;20022;-73
2024/03/05 19:57:41;;;;;;;4.80;2.47;;;;;;;;;;13175729;22;20028;-74
2024/03/05 20:02:46;;;;;;;5.35;2.85;;;;;;;;;;13174980;22;20542;-74
2024/03/05 20:07:51;;;;;;;5.40;3.00;;;;;;;;;;13138792;22;20069;-73
2024/03/05 20:12:57;;;;;;;11.10;4.63;;;;;;;;;;13166647;22;20049;-74
2024/03/05 20:18:01;;;;;;;11.30;5.35;;;;;;;;;;13173828;22;20057;-74
2024/03/05 20:23:05;;;;;;;15.63;6.50;;;;;;;;;;13165868;22;20014;-74
2024/03/05 20:28:12;;;;;;;19.38;7.85;;;;;;;;;;13172432;22;20054;-74
2024/03/05 20:33:16;;;;;;;13.93;7.20;;;;;;;;;;13171347;22;20052;-73
2024/03/05 20:38:21;;;;;;;14.82;7.32;;;;;;;;;;13171865;22;20060;-73
2024/03/05 20:43:26;;;;;;;9.90;5.50;;;;;;;;;;13165646;22;20076;-73
2024/03/05 20:48:29;;;;;;;8.57;4.65;;;;;;;;;;13138428;22;20675;-74
2024/03/05 20:53:36;;;;;;;8.55;4.40;;;;;;;;;;13171528;22;20026;-74
2024/03/05 20:58:40;;;;;;;;;;;;;;;;;;13140168;22;20249;-74
2024/03/05 21:03:43;;;;;;;5.35;3.60;;;;;;;;;;13172233;22;20059;-73
2024/03/05 21:08:47;;;;;;;5.88;3.00;;;;;;;;;;13169819;22;20030;-74
2024/03/05 21:13:53;;;;;;;6.57;3.70;;;;;;;;;;13166547;22;20069;-73
2024/03/05 21:18:59;;;;;;;5.37;3.80;;;;;;;;;;13163891;22;20027;-74
2024/03/05 21:24:03;;;;;;;3.53;2.80;;;;;;;;;;13167102;22;20057;-74
2024/03/05 21:29:07;;;;;;;5.30;3.00;;;;;;;;;;13135865;22;20106;-74
2024/03/05 21:34:12;;;;;;;4.45;2.92;;;;;;;;;;13166296;22;20421;-74
2024/03/05 21:39:15;;;;;;;4.30;2.55;;;;;;;;;;13163444;22;20054;-74
2024/03/05 21:44:20;;;;;;;4.47;2.80;;;;;;;;;;13164388;22;20073;-74
2024/03/05 21:49:24;;;;;;;4.50;3.10;;;;;;;;;;13165632;22;20023;-74
2024/03/05 21:54:29;;;;;;;6.05;3.40;;;;;;;;;;13169136;22;20041;-74
2024/03/05 21:59:33;;;;;;;8.20;4.10;;;;;;;;;;13170512;22;20105;-74
2024/03/05 22:04:37;;;;;;;6.32;4.10;;;;;;;;;;13169775;22;20388;-74
2024/03/05 22:09:40;;;;;;;6.00;3.78;;;;;;;;;;13140599;22;20022;-74
2024/03/05 22:14:45;;;;;;;5.13;3.50;;;;;;;;;;13140888;22;20030;-74
2024/03/05 22:19:48;;;;;;;4.80;3.00;;;;;;;;;;13140088;22;20030;-74
2024/03/05 22:24:52;;;;;;;4.75;3.05;;;;;;;;;;13189489;22;20022;-74
2024/03/05 22:29:56;;;;;;;3.92;2.47;;;;;;;;;;13169269;22;20679;-74
2024/03/05 22:34:59;;;;;;;2.60;1.88;;;;;;;;;;13189762;22;20432;-74
2024/03/05 22:40:04;;;;;;;1.90;1.70;;;;;;;;;;13189463;22;20489;-74
2024/03/05 22:45:10;;;;;;;1.75;1.38;;;;;;;;;;13189817;22;20328;-74
2024/03/05 22:50:13;;;;;;;1.63;1.50;;;;;;;;;;13187948;22;20029;-74
2024/03/05 22:55:17;;;;;;;1.80;1.40;;;;;;;;;;13188456;22;20063;-74
2024/03/05 23:00:23;;;;;;;3.45;1.40;;;;;;;;;;13187448;22;20097;-74
2024/03/05 23:05:26;;;;;;;;;;;;;;;;;;13186901;22;20022;-74
2024/03/05 23:10:31;;;;;;;1.90;1.58;;;;;;;;;;13186141;22;19938;-74
2024/03/05 23:20:57;;;;;;;5.80;2.22;;;;;;;;;;12866967;22;20036;-74
2024/03/05 23:26:02;;;;;;;5.65;3.13;;;;;;;;;;12926257;22;20172;-74
2024/03/05 23:31:07;;;;;;;4.15;2.85;;;;;;;;;;12925868;22;20027;-74
2024/03/05 23:36:10;;;;;;;3.90;2.47;;;;;;;;;;12925598;22;20352;-74
2024/03/05 23:41:14;;;;;;;3.17;2.22;;;;;;;;;;12924823;22;20356;-74
2024/03/05 23:46:20;;;;;;;2.70;1.60;;;;;;;;;;12924498;22;20090;-74
2024/03/05 23:51:24;;;;;;;2.75;2.10;;;;;;;;;;12923670;22;20024;-74
2024/03/05 23:56:27;;;;;;;3.45;2.38;;;;;;;;;;12909323;22;20537;-74
